Time;durP1;ratioP1;P1;durP2;ratioP2;P2;SDS_P1;SDS_P2;PMS_P1;PMS_P2;Temp;Humidity;BMP_temperature;BMP_pressure;BME280_temperature;BME280_humidity;BME280_pressure;Samples;Min_cycle;Max_cycle;Signal;HPM_P1;HPM_P2
2023/07/19 05:07:26;;;;;;;4.38;3.97;;;;;;;;;;4954119;28;20274;-69
2023/07/19 05:09:53;;;;;;;3.92;3.55;;;;;;;;;;4955808;28;20192;-69
2023/07/19 05:12:30;;;;;;;5.88;3.67;;;;;;;;;;4955800;28;20269;-69
2023/07/19 05:14:57;;;;;;;4.95;4.55;;;;;;;;;;4955767;28;20278;-69
2023/07/19 05:17:24;;;;;;;3.58;3.38;;;;;;;;;;5000532;23;20233;-70
2023/07/19 05:19:51;;;;;;;4.50;3.90;;;;;;;;;;4994434;28;20206;-71
2023/07/19 05:22:20;;;;;;;3.95;3.65;;;;;;;;;;4994482;28;20210;-71
2023/07/19 05:24:47;;;;;;;4.35;4.05;;;;;;;;;;4994305;28;20202;-71
2023/07/19 05:27:16;;;;;;;5.28;3.42;;;;;;;;;;4993929;28;20735;-70
2023/07/19 05:29:43;;;;;;;4.68;3.80;;;;;;;;;;4994328;28;20210;-71
2023/07/19 05:32:10;;;;;;;4.25;3.58;;;;;;;;;;4994273;28;20654;-71
2023/07/19 05:34:38;;;;;;;3.50;3.25;;;;;;;;;;4994230;28;20210;-71
2023/07/19 05:37:06;;;;;;;3.70;3.40;;;;;;;;;;4994103;28;20234;-71
2023/07/19 05:39:34;;;;;;;3.90;3.70;;;;;;;;;;4993833;28;20198;-71
2023/07/19 05:42:01;;;;;;;3.53;3.08;;;;;;;;;;4994187;28;20198;-70
2023/07/19 05:44:29;;;;;;;3.92;3.28;;;;;;;;;;4996516;28;20256;-70
2023/07/19 05:46:56;;;;;;;5.75;4.05;;;;;;;;;;4996756;28;20225;-70
2023/07/19 05:49:23;;;;;;;4.35;3.58;;;;;;;;;;4995344;28;20202;-70
2023/07/19 05:51:51;;;;;;;4.68;4.25;;;;;;;;;;4994327;28;20222;-70
2023/07/19 05:54:19;;;;;;;4.22;3.83;;;;;;;;;;4994672;28;20202;-70
2023/07/19 05:56:47;;;;;;;3.88;3.50;;;;;;;;;;4994990;28;20632;-70
2023/07/19 05:59:15;;;;;;;4.20;3.80;;;;;;;;;;4994595;28;20238;-70
2023/07/19 06:01:42;;;;;;;4.57;4.15;;;;;;;;;;4994847;28;20289;-70
2023/07/19 06:04:55;;;;;;;4.03;3.83;;;;;;;;;;4994912;28;20206;-70
2023/07/19 06:08:08;;;;;;;6.80;4.63;;;;;;;;;;4995022;28;20689;-71
2023/07/19 06:11:03;;;;;;;4.18;3.75;;;;;;;;;;4995359;28;20616;-70
2023/07/19 06:13:34;;;;;;;3.95;3.65;;;;;;;;;;4995051;28;20573;-71
2023/07/19 06:16:09;;;;;;;4.20;3.90;;;;;;;;;;4995774;28;20199;-71
2023/07/19 06:18:44;;;;;;;3.72;3.40;;;;;;;;;;4996419;28;20272;-70
2023/07/19 06:21:12;;;;;;;3.97;3.40;;;;;;;;;;4995408;28;20221;-72
2023/07/19 06:23:39;;;;;;;4.10;3.70;;;;;;;;;;4995471;28;20206;-72
2023/07/19 06:26:06;;;;;;;3.60;3.40;;;;;;;;;;4995539;28;20203;-72
2023/07/19 06:28:37;;;;;;;3.55;3.33;;;;;;;;;;4996632;28;20720;-72
2023/07/19 06:31:04;;;;;;;3.83;3.50;;;;;;;;;;4998218;28;20205;-72
2023/07/19 06:33:50;;;;;;;6.53;3.47;;;;;;;;;;4997739;28;20712;-72
2023/07/19 06:36:52;;;;;;;3.97;3.67;;;;;;;;;;4997275;28;20186;-72
2023/07/19 06:39:19;;;;;;;2.85;2.75;;;;;;;;;;4997559;28;20202;-72
2023/07/19 06:41:46;;;;;;;3.03;2.75;;;;;;;;;;4997853;28;20202;-72
2023/07/19 06:44:15;;;;;;;2.92;2.67;;;;;;;;;;4997098;28;20198;-72
2023/07/19 06:46:44;;;;;;;2.85;2.63;;;;;;;;;;4997017;28;20222;-72
2023/07/19 06:49:16;;;;;;;3.00;2.80;;;;;;;;;;4997086;28;20290;-72
2023/07/19 06:51:44;;;;;;;2.90;2.70;;;;;;;;;;4997326;28;20701;-71
2023/07/19 06:54:15;;;;;;;2.47;2.33;;;;;;;;;;4997246;28;20269;-71
2023/07/19 06:56:45;;;;;;;2.50;2.40;;;;;;;;;;4997233;28;20284;-71
2023/07/19 06:59:23;;;;;;;2.50;2.30;;;;;;;;;;4996945;28;20202;-71
2023/07/19 07:01:53;;;;;;;2.33;2.22;;;;;;;;;;4996520;28;20189;-71
2023/07/19 07:04:27;;;;;;;3.15;2.95;;;;;;;;;;4996793;28;20198;-71
2023/07/19 07:06:54;;;;;;;2.17;2.00;;;;;;;;;;4997032;28;20221;-71
2023/07/19 07:09:21;;;;;;;1.92;1.88;;;;;;;;;;4997084;28;20202;-71
2023/07/19 07:11:56;;;;;;;1.88;1.77;;;;;;;;;;4996974;28;20574;-71
2023/07/19 07:14:23;;;;;;;2.17;2.08;;;;;;;;;;4996753;28;20220;-71
2023/07/19 07:16:51;;;;;;;2.33;2.13;;;;;;;;;;4996227;28;20736;-71
2023/07/19 07:19:18;;;;;;;2.28;2.15;;;;;;;;;;4996509;28;20210;-71
2023/07/19 07:21:45;;;;;;;2.58;2.38;;;;;;;;;;4996791;28;20205;-70
2023/07/19 07:24:12;;;;;;;2.50;2.30;;;;;;;;;;4996547;28;20209;-70
2023/07/19 07:26:39;;;;;;;2.78;2.17;;;;;;;;;;4996486;28;20561;-70
2023/07/19 07:29:06;;;;;;;3.28;2.28;;;;;;;;;;4996276;28;20210;-70
2023/07/19 07:31:33;;;;;;;2.85;2.50;;;41.30;56.00;;;;;;4996451;28;20209;-71
2023/07/19 07:34:01;;;;;;;2.70;2.28;;;;;;;;;;4996602;28;20202;-72
2023/07/19 07:36:28;;;;;;;2.13;2.03;;;40.20;57.10;;;;;;4997910;28;20233;-71
2023/07/19 07:38:55;;;;;;;2.10;2.10;;;;;;;;;;4996890;28;20253;-71
2023/07/19 07:41:22;;;;;;;2.33;2.22;;;;;;;;;;4995263;28;20577;-71
2023/07/19 07:43:49;;;;;;;2.63;2.47;;;;;;;;;;4996012;28;20565;-71
2023/07/19 07:46:17;;;;;;;2.20;2.10;;;;;;;;;;4995593;28;20221;-71
2023/07/19 07:49:02;;;;;;;2.38;2.28;;;;;;;;;;4996048;28;20286;-72
2023/07/19 07:51:31;;;;;;;2.70;2.50;;;;;;;;;;4995461;28;20210;-72
2023/07/19 07:53:58;;;;;;;2.55;2.38;;;;;;;;;;4995752;28;20198;-72
2023/07/19 07:56:25;;;;;;;2.28;2.17;;;;;;;;;;4995689;28;20233;-71
2023/07/19 07:58:52;;;;;;;2.50;2.30;;;;;;;;;;4995760;28;20213;-71
2023/07/19 08:01:19;;;;;;;3.13;2.40;;;;;;;;;;4996018;28;20301;-71
2023/07/19 08:03:46;;;;;;;2.28;2.17;;;;;;;;;;4995756;28;20217;-72
2023/07/19 08:06:13;;;;;;;2.88;2.67;;;;;;;;;;4995654;28;20205;-71
2023/07/19 08:08:42;;;;;;;2.83;2.58;;;;;;;;;;4995675;28;20534;-71
2023/07/19 08:11:10;;;;;;;2.42;2.20;;;;;;;;;;4995264;28;20206;-71
2023/07/19 08:13:37;;;;;;;2.40;2.30;;;;;;;;;;4995336;28;20732;-71
2023/07/19 08:16:06;;;;;;;3.45;3.15;;;;;;;;;;4995087;28;20728;-70
2023/07/19 08:18:36;;;;;;;3.17;2.70;;;;;;;;;;4995479;28;20206;-70
2023/07/19 08:21:49;;;;;;;3.40;2.65;;;;;;;;;;4995451;28;20558;-70
2023/07/19 08:24:17;;;;;;;3.10;2.83;;;;;;;;;;4995375;28;20197;-70
2023/07/19 08:26:44;;;;;;;2.97;2.78;;;;;;;;;;4994931;28;20724;-70
2023/07/19 08:29:11;;;;;;;3.28;2.95;;;;;;;;;;4995372;28;20209;-70
2023/07/19 08:31:38;;;;;;;3.28;2.97;;;;;;;;;;4995324;28;20198;-71
2023/07/19 08:34:13;;;;;;;3.53;3.20;;;;;;;;;;4995320;28;20213;-71
2023/07/19 08:36:40;;;;;;;3.53;3.22;;;;;;;;;;4995113;28;20229;-70
2023/07/19 08:39:11;;;;;;;3.00;2.80;;;;;;;;;;4994810;28;20202;-72
2023/07/19 08:41:40;;;;;;;3.70;3.50;;;;;;;;;;4994976;28;20194;-71
2023/07/19 08:44:07;;;;;;;3.40;3.20;;;;;;;;;;4995009;28;20202;-71
2023/07/19 08:46:34;;;;;;;3.20;3.10;;;;;;;;;;4994885;28;20252;-71
2023/07/19 08:49:06;;;;;;;3.20;3.00;;;;;;;;;;4994930;28;20665;-71
2023/07/19 08:51:41;;;;;;;3.53;3.33;;;;;;;;;;4994776;28;20182;-70
2023/07/19 08:54:08;;;;;;;3.58;3.33;;;;;;;;;;4994859;28;20182;-71
2023/07/19 08:56:35;;;;;;;3.22;3.10;;;;;;;;;;4994605;28;20253;-71
2023/07/19 08:59:04;;;;;;;2.65;2.53;;;;;;;;;;4994736;28;20213;-71
2023/07/19 09:01:32;;;;;;;2.88;2.78;;;;;;;;;;4995164;28;20198;-71
2023/07/19 09:04:01;;;;;;;3.70;3.40;;;;;;;;;;4994685;28;20244;-71
2023/07/19 09:06:32;;;;;;;3.70;3.42;;;;;;;;;;4994595;28;20218;-70
2023/07/19 09:09:02;;;;;;;3.30;3.10;;;;;;;;;;4994724;28;20241;-70
2023/07/19 09:11:37;;;;;;;3.45;3.25;;;;;;;;;;4994958;28;20572;-71
2023/07/19 09:14:21;;;;;;;4.38;3.50;;;;;;;;;;4994661;28;20366;-71
2023/07/19 09:17:10;;;;;;;5.30;3.67;;;;;;;;;;4994073;28;20226;-70
2023/07/19 09:19:38;;;;;;;3.90;3.70;;;;;;;;;;4994196;28;20553;-70
2023/07/19 09:22:05;;;;;;;4.10;3.80;;;;;;;;;;4994403;28;20225;-72
2023/07/19 09:24:32;;;;;;;3.28;3.17;;;;;;;;;;4994396;28;20197;-71
2023/07/19 09:27:00;;;;;;;3.30;3.10;;;;;;;;;;4994353;28;20225;-71
2023/07/19 09:29:31;;;;;;;2.92;2.83;;;;;;;;;;4995454;28;20233;-72
2023/07/19 09:31:59;;;;;;;2.90;2.80;;;;;;;;;;4995198;28;20217;-72
2023/07/19 09:34:30;;;;;;;3.03;2.80;;;;;;;;;;4995231;28;20198;-73
2023/07/19 09:37:01;;;;;;;3.20;3.00;;;;;;;;;;4994990;28;20225;-73
2023/07/19 09:39:29;;;;;;;4.15;2.97;;;;;;;;;;4995027;28;20201;-73
2023/07/19 09:41:57;;;;;;;3.30;3.15;;;;;;;;;;4995871;28;20233;-68
2023/07/19 09:44:27;;;;;;;5.97;3.75;;;;;;;;;;4995254;28;20198;-68
2023/07/19 09:46:59;;;;;;;3.80;3.47;;;;;;;;;;4994760;28;20233;-68
2023/07/19 09:49:34;;;;;;;3.53;3.28;;;;;;;;;;4995202;28;20554;-68
2023/07/19 09:52:45;;;;;;;3.30;3.05;;;;;;;;;;4995279;28;20189;-69
2023/07/19 09:55:12;;;;;;;3.47;3.28;;;;;;;;;;4995210;28;20246;-71
2023/07/19 09:57:41;;;;;;;3.85;3.55;;;;;;;;;;4994975;28;20218;-71
2023/07/19 10:00:09;;;;;;;3.40;3.13;;;;;;;;;;4995618;28;20202;-72
2023/07/19 10:02:38;;;;;;;4.00;3.70;;;;;;;;;;4995254;28;20262;-71
2023/07/19 10:05:08;;;;;;;3.60;3.30;;;;;;;;;;4998726;28;20198;-71
2023/07/19 10:07:36;;;;;;;3.80;3.45;;;;;;;;;;4998247;28;20264;-72
2023/07/19 10:10:04;;;;;;;3.33;3.13;;;;;;;;;;4998895;28;20253;-72
2023/07/19 10:12:32;;;;;;;3.53;3.20;;;;;;;;;;4999116;28;20210;-72
2023/07/19 10:15:04;;;;;;;3.53;3.33;;;;;;;;;;4998903;28;20234;-71
2023/07/19 10:17:39;;;;;;;4.13;3.83;;;;;;;;;;4998657;28;20709;-71
2023/07/19 10:20:12;;;;;;;3.63;3.38;;;;;;;;;;4998643;28;20186;-71
2023/07/19 10:22:50;;;;;;;3.55;3.35;;;;;;;;;;4999334;28;20267;-72
2023/07/19 10:25:22;;;;;;;6.57;3.90;;;;;;;;;;4998613;28;20202;-68
2023/07/19 10:27:56;;;;;;;4.88;3.47;;;;;;;;;;4998390;28;20262;-69
2023/07/19 10:30:24;;;;;;;3.28;3.08;;;;;;;;;;4998050;28;20201;-67
2023/07/19 10:32:51;;;;;;;3.40;3.10;;;;;;;;;;4998796;28;20206;-68
2023/07/19 10:35:35;;;;;;;3.30;3.10;;;;;;;;;;4997874;28;20202;-69
2023/07/19 10:38:02;;;;;;;3.40;3.20;;;;;;;;;;4998423;28;20333;-70
2023/07/19 10:40:29;;;;;;;3.38;3.17;;;;;;;;;;4998232;28;20237;-67
2023/07/19 10:42:56;;;;;;;3.20;3.03;;;;;;;;;;4997830;28;20257;-69
2023/07/19 10:45:25;;;;;;;3.33;3.13;;;;;;;;;;4997747;28;20225;-68
2023/07/19 10:47:53;;;;;;;4.00;3.60;;;;;;;;;;4997964;28;20222;-68
2023/07/19 10:50:25;;;;;;;4.35;3.58;;;;;;;;;;4997637;28;20206;-68
2023/07/19 10:52:53;;;;;;;4.18;3.38;;;;;;;;;;4999418;28;20597;-72
2023/07/19 10:55:20;;;;;;;3.50;3.20;;;;;;;;;;4998999;28;20202;-73
2023/07/19 10:57:48;;;;;;;3.58;3.30;;;;;;;;;;4998223;28;20218;-72
2023/07/19 11:00:15;;;;;;;3.63;3.30;;;;;;;;;;4996966;28;20238;-72
2023/07/19 11:02:42;;;;;;;3.72;3.30;;;;;;;;;;4997136;28;20557;-72
2023/07/19 11:05:11;;;;;;;3.55;3.25;;;;;;;;;;4996762;28;20209;-72
2023/07/19 11:07:38;;;;;;;3.10;2.90;;;;;;;;;;4996827;28;20222;-73
2023/07/19 11:10:07;;;;;;;3.72;3.33;;;;;;;;;;4996478;28;20213;-73
2023/07/19 11:12:34;;;;;;;3.40;3.20;;;;;;;;;;4996882;28;20198;-73
2023/07/19 11:15:01;;;;;;;3.67;3.47;;;;;;;;;;4996619;28;20202;-73
2023/07/19 11:17:29;;;;;;;3.17;3.08;;;;;;;;;;4996222;28;20233;-72
2023/07/19 11:19:57;;;;;;;3.42;3.13;;;;;;;;;;4996659;28;20225;-72
2023/07/19 11:22:23;;;;;;;3.30;3.10;;;;;;;;;;4996620;28;20198;-72
2023/07/19 11:24:53;;;;;;;2.88;2.72;;;;;;;;;;4996559;28;20205;-73
2023/07/19 11:27:33;;;;;;;3.70;3.40;;;;;;;;;;4997156;28;20225;-69
2023/07/19 11:30:00;;;;;;;3.65;3.20;;;;;;;;;;4997526;28;20645;-69
2023/07/19 11:32:27;;;;;;;3.10;2.90;;;;;;;;;;4997252;28;20217;-69
2023/07/19 11:34:56;;;;;;;3.40;3.20;;;;;;;;;;4996610;28;20214;-69
2023/07/19 11:37:25;;;;;;;3.67;3.28;;;;;;;;;;4996703;28;20723;-69
2023/07/19 11:39:53;;;;;;;3.35;3.15;;;;;;;;;;4996901;28;20218;-69
2023/07/19 11:42:39;;;;;;;3.20;3.10;;;;;;;;;;4997065;28;20260;-70
2023/07/19 11:45:10;;;;;;;3.67;3.10;;;;;;;;;;4996745;28;20293;-69
2023/07/19 11:47:37;;;;;;;4.07;3.70;;;;;;;;;;4996591;28;20245;-69
2023/07/19 11:50:05;;;;;;;3.67;3.47;;;;;;;;;;4995935;28;20617;-70
2023/07/19 11:52:33;;;;;;;3.60;3.30;;;;;;;;;;4996540;28;20182;-69
2023/07/19 11:55:00;;;;;;;3.53;3.33;;;;;;;;;;4997165;28;20253;-71
2023/07/19 11:57:27;;;;;;;3.53;3.33;;;;;;;;;;4995771;28;20254;-70
2023/07/19 12:00:09;;;;;;;3.15;2.95;;;;;;;;;;4996433;28;20222;-70
2023/07/19 12:02:37;;;;;;;3.38;3.08;;;;;;;;;;4995423;28;20194;-71
2023/07/19 12:05:06;;;;;;;3.60;3.33;;;;;;;;;;4995631;28;20213;-71
2023/07/19 12:07:33;;;;;;;3.15;2.95;;;;;;;;;;4995449;28;20564;-70
2023/07/19 12:10:02;;;;;;;3.72;3.42;;;;;;;;;;4995510;28;20246;-71
2023/07/19 12:12:29;;;;;;;3.53;3.33;;;;;;;;;;4995236;28;20206;-71
2023/07/19 12:14:57;;;;;;;2.97;2.88;;;;;;;;;;4995452;28;20210;-70
2023/07/19 12:17:25;;;;;;;3.40;3.00;;;;;;;;;;4995201;28;20728;-70
2023/07/19 12:19:53;;;;;;;3.70;3.03;;;;;;;;;;4995179;28;20233;-72
2023/07/19 12:22:21;;;;;;;3.15;3.00;;;;;;;;;;4994890;28;20666;-70
2023/07/19 12:24:48;;;;;;;3.20;3.00;;;;;;;;;;4995104;28;20229;-70
2023/07/19 12:27:17;;;;;;;3.60;3.40;;;;;;;;;;4994838;28;20226;-69
2023/07/19 12:29:44;;;;;;;2.83;2.72;;;;;;;;;;4995387;28;20194;-70
2023/07/19 12:32:12;;;;;;;2.53;2.42;;;;;;;;;;4994744;28;20202;-70
2023/07/19 12:34:39;;;;;;;3.83;2.75;;;;;;;;;;4994927;28;20213;-70
2023/07/19 12:37:08;;;;;;;3.20;2.83;;;;;;;;;;4994621;28;20222;-70
2023/07/19 12:39:35;;;;;;;3.40;2.92;;;;;;;;;;4995329;28;20218;-70
2023/07/19 12:42:03;;;;;;;2.78;2.67;;;;;;;;;;4995033;28;20202;-70
2023/07/19 12:44:31;;;;;;;2.47;2.38;;;;;;;;;;4994657;28;20202;-71
2023/07/19 12:46:58;;;;;;;2.50;2.40;;;;;;;;;;4994941;28;20218;-70
2023/07/19 12:49:25;;;;;;;2.42;2.30;;;;;;;;;;4995044;28;20284;-70
2023/07/19 12:51:52;;;;;;;2.78;2.60;;;;;;;;;;4994581;28;20661;-70
2023/07/19 12:54:21;;;;;;;2.20;2.10;;;;;;;;;;4994705;28;20736;-70
2023/07/19 12:56:48;;;;;;;2.20;2.10;;;;;;;;;;4994458;28;20593;-70
2023/07/19 12:59:16;;;;;;;2.60;2.47;;;;;;;;;;4994649;28;20273;-68
2023/07/19 13:01:43;;;;;;;2.22;2.13;;;;;;;;;;4994337;28;20198;-69
2023/07/19 13:04:10;;;;;;;2.63;2.42;;;;;;;;;;4994321;28;20206;-69
2023/07/19 13:06:38;;;;;;;2.28;2.17;;;;;;;;;;4994168;28;20230;-69
2023/07/19 13:09:06;;;;;;;1.85;1.85;;;;;;;;;;4994332;28;20198;-69
2023/07/19 13:11:35;;;;;;;2.50;1.85;;;;;;;;;;4994758;28;20213;-69
2023/07/19 13:14:03;;;;;;;2.22;2.13;;;;;;;;;;4994319;28;20670;-69
2023/07/19 13:16:35;;;;;;;2.33;2.22;;;;;;;;;;4994331;28;20230;-69
2023/07/19 13:19:03;;;;;;;2.10;1.88;;;;;;;;;;4994216;28;20206;-69
2023/07/19 13:21:30;;;;;;;1.98;1.83;;;;;;;;;;4994399;28;20201;-70
2023/07/19 13:23:58;;;;;;;2.28;2.17;;;;;;;;;;4994651;28;20210;-70
2023/07/19 13:26:25;;;;;;;1.95;1.85;;;;;;;;;;4994431;28;20226;-70
2023/07/19 13:28:54;;;;;;;3.00;2.20;;;;;;;;;;4994178;28;20202;-70
2023/07/19 13:31:21;;;;;;;2.08;1.98;;;;;;;;;;4994016;28;20316;-70
2023/07/19 13:33:48;;;;;;;1.85;1.75;;;;;;;;;;4994316;28;20210;-70
2023/07/19 13:36:16;;;;;;;2.22;2.13;;;;;;;;;;4994009;28;20642;-70
2023/07/19 13:38:43;;;;;;;3.33;1.70;;;;;;;;;;4995742;28;20704;-70
2023/07/19 13:41:10;;;;;;;1.98;1.98;;;;;;;;;;4998082;28;20662;-70
2023/07/19 13:43:37;;;;;;;1.80;1.70;;;;;;;;;;4998065;28;20696;-70
2023/07/19 13:46:06;;;;;;;1.63;1.63;;;;;;;;;;4998421;28;20208;-71
2023/07/19 13:48:33;;;;;;;1.75;1.65;;;;;;;;;;4998190;28;20213;-70
2023/07/19 13:51:01;;;;;;;1.63;1.63;;;;;;;;;;4998087;28;20252;-70
2023/07/19 13:53:29;;;;;;;1.80;1.70;;;;;;;;;;4998151;28;20244;-70
2023/07/19 13:55:56;;;;;;;1.90;1.80;;;;;;;;;;4997755;28;20190;-70
2023/07/19 13:58:23;;;;;;;2.22;2.00;;;;;;;;;;4997899;28;20253;-70
2023/07/19 14:00:51;;;;;;;2.22;2.03;;;;;;;;;;4997557;28;20693;-71
2023/07/19 14:03:19;;;;;;;1.83;1.83;;;;;;;;;;4997971;28;20577;-70
2023/07/19 14:06:07;;;;;;;2.15;2.05;;;;;;;;;;4997565;28;20244;-70
2023/07/19 14:08:35;;;;;;;2.38;2.00;;;;;;;;;;4997647;28;20214;-70
2023/07/19 14:11:02;;;;;;;2.10;2.00;;;;;;;;;;4997722;28;20210;-70
2023/07/19 14:13:29;;;;;;;2.97;2.13;;;;;;;;;;4997638;28;20269;-70
2023/07/19 14:15:56;;;;;;;2.60;2.40;;;;;;;;;;4997526;28;20206;-70
2023/07/19 14:18:24;;;;;;;2.22;2.10;;;;;;;;;;4997123;28;20713;-68
2023/07/19 14:20:52;;;;;;;2.35;2.22;;;;;;;;;;4997283;28;20306;-68
2023/07/19 14:23:19;;;;;;;2.50;2.40;;;;;;;;;;4998097;28;20202;-67
2023/07/19 14:25:47;;;;;;;3.05;2.63;;;;;;;;;;4999100;28;20206;-67
2023/07/19 14:28:15;;;;;;;2.58;2.38;;;;;;;;;;4998400;28;20218;-67
2023/07/19 14:30:43;;;;;;;2.88;2.67;;;;;;;;;;4998459;28;20205;-67
2023/07/19 14:33:10;;;;;;;2.72;2.53;;;;;;;;;;4998271;28;20229;-67
2023/07/19 14:35:39;;;;;;;2.47;2.28;;;;;;;;;;4998534;28;20198;-70
2023/07/19 14:38:06;;;;;;;2.55;2.38;;;;;;;;;;4997543;28;20222;-71
2023/07/19 14:40:33;;;;;;;2.50;2.40;;;;;;;;;;4998013;28;20641;-70
2023/07/19 14:43:01;;;;;;;3.22;3.03;;;;;;;;;;4998355;28;20293;-70
2023/07/19 14:45:28;;;;;;;2.72;2.53;;;;;;;;;;4997912;28;20209;-70
2023/07/19 14:47:56;;;;;;;2.83;2.67;;;;;;;;;;4998159;28;20277;-70
2023/07/19 14:50:23;;;;;;;3.17;2.95;;;;;;;;;;4997970;28;20202;-68
2023/07/19 14:52:55;;;;;;;2.97;2.65;;;;;;;;;;4997600;28;20296;-67
2023/07/19 14:55:23;;;;;;;2.80;2.60;;;;;;;;;;4998096;28;20194;-67
2023/07/19 14:57:50;;;;;;;2.50;2.30;;;;;;;;;;4998009;28;20226;-69
2023/07/19 15:00:17;;;;;;;2.40;2.20;;;;;;;;;;4997836;28;20580;-68
2023/07/19 15:02:44;;;;;;;2.60;2.38;;;;;;;;;;4997974;28;20202;-68
2023/07/19 15:05:11;;;;;;;2.35;2.28;;;;;;;;;;4997475;28;20689;-72
2023/07/19 15:07:42;;;;;;;2.30;2.20;;;;;;;;;;4996826;28;20218;-70
2023/07/19 15:10:11;;;;;;;2.65;2.38;;;;;;;;;;4996845;28;20210;-70
2023/07/19 15:12:38;;;;;;;2.60;2.40;;;;;;;;;;4996327;28;20657;-70
2023/07/19 15:15:06;;;;;;;1.95;1.85;;;;;;;;;;4996688;28;20206;-70
2023/07/19 15:17:36;;;;;;;2.10;2.00;;;;;;;;;;4996440;28;20241;-70
2023/07/19 15:20:06;;;;;;;2.58;2.38;;;;;;;;;;4996238;28;20203;-70
2023/07/19 15:22:36;;;;;;;2.35;2.25;;;;;;;;;;4996586;28;20237;-70
2023/07/19 15:25:06;;;;;;;2.88;2.63;;;;;;;;;;4996255;28;20666;-71
2023/07/19 15:27:36;;;;;;;2.50;2.30;;;;;;;;;;4996136;28;20230;-71
2023/07/19 15:30:06;;;;;;;2.70;2.60;;;;;;;;;;4996303;28;20204;-71
2023/07/19 15:32:36;;;;;;;3.33;2.80;;;;;;;;;;4996317;28;20257;-71
2023/07/19 15:35:06;;;;;;;2.42;2.22;;;;;;;;;;4996246;28;20191;-72
2023/07/19 15:37:34;;;;;;;2.33;2.20;;;;;;;;;;4996093;28;20754;-72
2023/07/19 15:40:03;;;;;;;2.63;2.42;;;;;;;;;;4995798;28;20206;-71
2023/07/19 15:42:33;;;;;;;2.75;2.55;;;;;;;;;;4996197;28;20252;-71
2023/07/19 15:45:04;;;;;;;2.35;2.20;;;;;;;;;;4995817;28;20209;-71
2023/07/19 15:47:31;;;;;;;2.65;2.50;;;;;;;;;;4996110;28;20226;-72
2023/07/19 15:49:59;;;;;;;3.95;2.40;;;;;;;;;;4995892;28;20198;-71
2023/07/19 15:52:53;;;;;;;2.72;2.53;;;;;;;;;;4995906;28;20199;-71
2023/07/19 15:55:21;;;;;;;2.67;2.58;;;;;;;;;;4995530;28;20639;-71
2023/07/19 15:57:48;;;;;;;2.33;2.17;;;;;;;;;;4995643;28;20226;-72
2023/07/19 16:00:33;;;;;;;2.80;2.60;;;;;;;;;;4995413;28;20209;-72
2023/07/19 16:03:43;;;;;;;2.25;2.15;;;;;;;;;;4995375;28;20606;-71
2023/07/19 16:06:22;;;;;;;2.47;2.35;;;;;;;;;;4995207;28;20658;-72
2023/07/19 16:08:56;;;;;;;2.45;2.25;;;;;;;;;;4995435;28;20292;-71
2023/07/19 16:11:23;;;;;;;2.72;2.50;;;;;;;;;;4995578;28;20217;-71
2023/07/19 16:13:58;;;;;;;2.38;2.20;;;;;;;;;;4995501;28;20209;-71
2023/07/19 16:16:27;;;;;;;2.65;2.45;;;;;;;;;;4995372;28;20245;-71
2023/07/19 16:19:02;;;;;;;2.30;2.10;;;;;;;;;;4995447;28;20193;-71
2023/07/19 16:21:45;;;;;;;2.45;2.35;;;;;;;;;;4995393;28;20224;-71
2023/07/19 16:24:19;;;;;;;2.60;2.40;;;;;;;;;;4995281;28;20238;-71
2023/07/19 16:27:26;;;;;;;2.38;2.28;;;;;;;;;;4995134;28;20225;-71
2023/07/19 16:29:56;;;;;;;2.80;2.70;;;;;;;;;;4995176;28;20198;-71
2023/07/19 16:32:24;;;;;;;2.13;2.03;;;;;;;;;;4995106;28;20202;-71
2023/07/19 16:35:10;;;;;;;1.98;1.88;;;;;;;;;;4995714;28;20549;-71
2023/07/19 16:37:44;;;;;;;2.40;2.20;;;;;;;;;;4995148;28;20225;-71
2023/07/19 16:40:27;;;;;;;2.30;2.20;;;;;;;;;;4994981;28;20225;-71
2023/07/19 16:42:57;;;;;;;2.45;2.35;;;;;;;;;;4994987;28;20190;-71
2023/07/19 16:45:28;;;;;;;2.65;2.50;;;;;;;;;;4994701;28;20764;-74
2023/07/19 16:47:59;;;;;;;2.17;2.08;;;;;;;;;;4994874;28;20233;-70
2023/07/19 16:50:27;;;;;;;1.98;1.73;;;;;;;;;;4994849;28;20182;-70
2023/07/19 16:53:02;;;;;;;2.28;2.17;;;;;;;;;;4994658;28;20198;-70
2023/07/19 16:55:32;;;;;;;2.40;2.30;;;;;;;;;;4994560;28;20182;-70
2023/07/19 16:58:03;;;;;;;3.50;2.13;;;;;;;;;;4994525;28;20701;-71
2023/07/19 17:00:33;;;;;;;2.10;2.00;;;;;;;;;;4994606;28;20241;-72
2023/07/19 17:03:05;;;;;;;2.10;2.00;;;;;;;;;;4995002;28;20205;-72
2023/07/19 17:05:35;;;;;;;2.70;2.50;;;;;;;;;;4994825;28;20233;-71
2023/07/19 17:08:06;;;;;;;2.15;2.05;;;;;;;;;;4994709;28;20280;-73
2023/07/19 17:10:37;;;;;;;2.10;1.98;;;;;;;;;;4995046;28;20229;-72
2023/07/19 17:13:10;;;;;;;2.10;2.00;;;;;;;;;;4994419;28;20551;-72
2023/07/19 17:15:40;;;;;;;2.03;1.92;;;;;;;;;;4994685;28;20194;-70
2023/07/19 17:18:12;;;;;;;2.30;2.15;;;;;;;;;;4994130;28;20237;-70
2023/07/19 17:20:42;;;;;;;2.85;2.58;;;;;;;;;;4994873;28;20187;-70
2023/07/19 17:23:34;;;;;;;2.97;2.78;;;;;;;;;;4994482;28;20187;-74
2023/07/19 17:26:44;;;;;;;3.20;2.45;;;;;;;;;;4994568;28;20210;-71
2023/07/19 17:29:54;;;;;;;2.60;2.50;;;;;;;;;;4994565;28;20209;-73
2023/07/19 17:33:04;;;;;;;2.78;2.58;;;;;;;;;;4995634;28;20182;-71
2023/07/19 17:36:16;;;;;;;2.28;2.17;;;;;;;;;;4995823;28;20209;-71
2023/07/19 17:39:29;;;;;;;2.45;2.35;;;;;;;;;;4994683;28;20205;-70
2023/07/19 17:42:43;;;;;;;2.13;2.10;;;;;;;;;;4994086;28;20673;-70
2023/07/19 17:45:57;;;;;;;2.40;2.30;;;;;;;;;;4994480;28;20288;-71
2023/07/19 17:49:08;;;;;;;2.60;2.42;;;;;;;;;;4994362;28;20218;-70
2023/07/19 17:52:21;;;;;;;3.85;2.83;;;;;;;;;;4994767;28;20258;-69
2023/07/19 17:55:34;;;;;;;2.33;2.22;;;;;;;;;;4994527;28;20214;-69
2023/07/19 17:58:06;;;;;;;4.15;2.50;;;;;;;;;;4994835;28;20273;-69
2023/07/19 18:00:33;;;;;;;3.35;2.97;;;;;;;;;;4994757;28;20182;-70
2023/07/19 18:03:01;;;;;;;3.15;2.95;;;;;;;;;;4996513;28;20289;-69
2023/07/19 18:05:28;;;;;;;2.33;2.22;;;;;;;;;;4996289;28;20253;-70
2023/07/19 18:07:57;;;;;;;2.65;2.45;;;;;;;;;;4995318;28;20218;-69
2023/07/19 18:10:24;;;;;;;3.72;2.50;;;;;;;;;;4995392;28;20701;-69
2023/07/19 18:12:51;;;;;;;2.58;2.47;;;;;;;;;;4995165;28;20229;-70
2023/07/19 18:15:18;;;;;;;2.30;2.13;;;;;;;;;;4995232;28;20214;-73
2023/07/19 18:17:45;;;;;;;2.35;2.25;;;;;;;;;;4993750;28;20230;-71
2023/07/19 18:20:12;;;;;;;3.65;2.65;;;;;;;;;;4993937;28;20202;-70
2023/07/19 18:22:40;;;;;;;2.88;2.72;;;;;;;;;;4994528;28;20221;-71
2023/07/19 18:25:09;;;;;;;3.13;2.88;;;;;;;;;;4996768;28;20565;-71
2023/07/19 18:27:36;;;;;;;2.88;2.67;;;;;;;;;;4998963;28;20226;-70
2023/07/19 18:30:03;;;;;;;2.88;2.67;;;;;;;;;;4998697;28;20206;-68
2023/07/19 18:32:30;;;;;;;2.90;2.70;;;;;;;;;;4998130;28;20555;-69
2023/07/19 18:34:57;;;;;;;2.90;2.70;;;;;;;;;;4997656;28;20569;-69
2023/07/19 18:37:24;;;;;;;2.78;2.58;;;;;;;;;;4997858;28;20285;-71
2023/07/19 18:39:51;;;;;;;3.90;2.80;;;;;;;;;;4997872;28;20206;-71
2023/07/19 18:42:23;;;;;;;3.00;2.80;;;;;;;;;;4998013;28;20179;-70
2023/07/19 18:44:51;;;;;;;2.67;2.58;;;;;;;;;;4997612;28;20634;-70
2023/07/19 18:47:58;;;;;;;2.67;2.47;;;;;;;;;;4997730;28;20226;-69
2023/07/19 18:50:31;;;;;;;2.33;2.22;;;;;;;;;;4997907;28;20588;-71
2023/07/19 18:53:20;;;;;;;2.35;2.25;;;;;;;;;;4997619;28;20214;-70
2023/07/19 18:56:30;;;;;;;2.38;2.17;;;;;;;;;;4997438;28;20203;-69
2023/07/19 18:59:31;;;;;;;2.15;2.03;;;;;;;;;;4997392;28;20670;-68
2023/07/19 19:01:58;;;;;;;2.60;2.40;;;;;;;;;;4997371;28;20194;-69
2023/07/19 19:04:25;;;;;;;2.83;2.63;;;;;;;;;;4996815;28;20658;-68
2023/07/19 19:06:52;;;;;;;2.45;2.35;;;;;;;;;;4996531;28;20222;-68
2023/07/19 19:09:19;;;;;;;2.22;2.13;;;;;;;;;;4997155;28;20209;-67
2023/07/19 19:11:46;;;;;;;2.20;2.10;;;;;;;;;;4997120;28;20217;-69
2023/07/19 19:14:15;;;;;;;3.83;2.58;;;;;;;;;;4996917;28;20210;-68
2023/07/19 19:16:43;;;;;;;2.22;2.13;;;;;;;;;;4996565;28;20234;-69
2023/07/19 19:19:10;;;;;;;2.33;2.17;;;;;;;;;;4996687;28;20183;-69
2023/07/19 19:22:17;;;;;;;2.33;2.15;;;;;;;;;;4996638;28;20206;-68
2023/07/19 19:24:45;;;;;;;2.22;2.10;;;;;;;;;;4996547;28;20202;-68
2023/07/19 19:27:12;;;;;;;1.90;1.80;;;;;;;;;;4996586;28;20280;-70
2023/07/19 19:29:40;;;;;;;1.48;1.48;;;;;;;;;;4996554;28;20209;-69
2023/07/19 19:32:07;;;;;;;1.65;1.65;;;;;;;;;;4996466;28;20198;-68
2023/07/19 19:34:36;;;;;;;2.03;1.92;;;;;;;;;;4996432;28;20206;-69
2023/07/19 19:37:03;;;;;;;1.65;1.55;;;;;;;;;;4994755;28;20704;-69
2023/07/19 19:39:30;;;;;;;1.67;1.58;;;;;;;;;;4996428;28;20210;-69
2023/07/19 19:41:57;;;;;;;1.65;1.65;;;;;;;;;;4996387;28;20202;-70
2023/07/19 19:44:24;;;;;;;1.25;1.25;;;;;;;;;;4996681;28;20228;-69
2023/07/19 19:46:53;;;;;;;1.40;1.40;;;;;;;;;;4996191;28;20218;-69
2023/07/19 19:49:20;;;;;;;1.30;1.30;;;;;;;;;;4996422;28;20209;-70
2023/07/19 19:51:47;;;;;;;1.40;1.40;;;;;;;;;;4996140;28;20212;-70
2023/07/19 19:54:14;;;;;;;1.27;1.23;;;;;;;;;;4996083;28;20228;-70
2023/07/19 19:56:41;;;;;;;1.83;1.73;;;;;;;;;;4996044;28;20237;-70
2023/07/19 19:59:08;;;;;;;1.40;1.40;;;;;;;;;;4996500;28;20198;-72
2023/07/19 20:01:35;;;;;;;1.38;1.38;;;;;;;;;;4996126;28;20202;-69
2023/07/19 20:04:05;;;;;;;1.63;1.52;;;;;;;;;;4996406;28;20198;-71
2023/07/19 20:06:32;;;;;;;1.10;1.10;;;;;;;;;;4996048;28;20309;-70
2023/07/19 20:09:00;;;;;;;1.20;1.20;;;;;;;;;;4995838;28;20202;-72
2023/07/19 20:11:27;;;;;;;1.30;1.20;;;;;;;;;;4995711;28;20301;-72
2023/07/19 20:13:54;;;;;;;1.75;1.65;;;;;;;;;;4995682;28;20205;-72
2023/07/19 20:16:21;;;;;;;1.20;1.20;;;;;;;;;;4995287;28;20234;-72